Time;durP1;ratioP1;P1;durP2;ratioP2;P2;SDS_P1;SDS_P2;PMS_P1;PMS_P2;Temp;Humidity;BMP_temperature;BMP_pressure;BME280_temperature;BME280_humidity;BME280_pressure;Samples;Min_cycle;Max_cycle;Signal;HPM_P1;HPM_P2
2022/07/01 00:00:37;;;;;;;0.75;0.75;;;14.20;99.90;;;;;;5074482;28;20391;-68
2022/07/01 00:03:04;;;;;;;1.00;0.47;;;14.30;99.90;;;;;;5074421;28;20032;-68
2022/07/01 00:05:30;;;;;;;0.70;0.40;;;14.60;99.90;;;;;;5074250;28;20113;-68
2022/07/01 00:07:56;;;;;;;0.85;0.52;;;14.60;99.90;;;;;;5074282;28;20381;-68
2022/07/01 00:10:21;;;;;;;2.58;0.40;;;14.30;99.90;;;;;;5055982;28;20431;-67
2022/07/01 00:12:47;;;;;;;0.60;0.52;;;15.30;99.90;;;;;;5074069;28;20043;-67
2022/07/01 00:15:13;;;;;;;0.20;0.20;;;14.90;99.90;;;;;;5073843;28;20044;-68
2022/07/01 00:17:39;;;;;;;1.15;0.55;;;14.40;99.90;;;;;;5055868;28;20100;-68
2022/07/01 00:20:07;;;;;;;1.70;0.70;;;14.60;99.90;;;;;;5074118;28;20047;-67
2022/07/01 00:22:33;;;;;;;0.68;0.50;;;14.50;99.90;;;;;;5073982;28;20044;-68
2022/07/01 00:24:59;;;;;;;0.80;0.47;;;14.50;99.90;;;;;;5073936;28;20040;-68
2022/07/01 00:27:25;;;;;;;0.80;0.30;;;14.50;99.90;;;;;;5073552;28;20105;-67
2022/07/01 00:29:51;;;;;;;0.43;0.43;;;14.50;99.90;;;;;;5073867;28;20036;-68
2022/07/01 00:32:16;;;;;;;0.60;0.35;;;14.40;99.90;;;;;;5073409;28;20067;-67
2022/07/01 00:34:42;;;;;;;0.90;0.40;;;14.50;99.90;;;;;;5073508;28;20119;-67
2022/07/01 00:37:08;;;;;;;1.30;0.50;;;14.50;99.90;;;;;;5072455;28;20047;-67
2022/07/01 00:39:35;;;;;;;1.00;0.40;;;15.20;99.90;;;;;;5073645;28;20039;-68
2022/07/01 00:42:03;;;;;;;0.63;0.47;;;14.30;99.90;;;;;;5073390;28;20044;-68
2022/07/01 00:44:29;;;;;;;0.30;0.30;;;14.40;99.90;;;;;;5073551;28;20036;-68
2022/07/01 00:46:56;;;;;;;0.47;0.40;;;14.90;99.90;;;;;;5073549;28;20481;-68
2022/07/01 00:49:23;;;;;;;0.50;0.43;;;14.50;99.90;;;;;;5072640;28;20047;-68
2022/07/01 00:51:49;;;;;;;0.40;0.40;;;14.50;99.90;;;;;;5073069;28;20041;-68
2022/07/01 00:54:15;;;;;;;2.70;0.43;;;14.60;99.90;;;;;;5072099;28;20040;-68
2022/07/01 00:56:41;;;;;;;0.75;0.57;;;14.70;99.90;;;;;;5073196;28;20036;-68
2022/07/01 00:59:07;;;;;;;0.75;0.50;;;14.60;99.90;;;;;;5073024;28;20074;-68
2022/07/01 01:01:33;;;;;;;1.63;0.80;;;14.60;99.90;;;;;;5073317;28;20036;-67
2022/07/01 01:03:59;;;;;;;0.85;0.52;;;14.50;99.90;;;;;;5073278;28;20041;-67
2022/07/01 01:06:24;;;;;;;2.60;0.98;;;14.60;99.90;;;;;;5055028;28;20404;-67
2022/07/01 01:08:50;;;;;;;0.80;0.57;;;14.60;99.90;;;;;;5073246;28;20141;-68
2022/07/01 01:11:17;;;;;;;0.40;0.40;;;15.30;99.90;;;;;;5072645;28;20059;-68
2022/07/01 01:13:42;;;;;;;0.85;0.63;;;14.60;99.90;;;;;;5072918;28;20037;-68
2022/07/01 01:16:17;;;;;;;0.68;0.50;;;14.40;99.90;;;;;;5073119;28;20032;-67
2022/07/01 01:18:42;;;;;;;1.00;0.43;;;15.20;99.90;;;;;;5073150;28;20406;-68
2022/07/01 01:21:08;;;;;;;1.08;0.60;;;14.60;99.90;;;;;;5072761;28;20094;-68
2022/07/01 01:23:34;;;;;;;0.30;0.30;;;14.60;99.90;;;;;;5054950;28;20047;-67
2022/07/01 01:26:02;;;;;;;1.45;0.40;;;14.60;99.90;;;;;;5072839;28;20044;-68
2022/07/01 01:28:28;;;;;;;3.70;0.52;;;14.60;99.90;;;;;;5055082;28;20101;-68
2022/07/01 01:30:54;;;;;;;0.43;0.40;;;14.60;99.90;;;;;;5072994;28;20036;-68
2022/07/01 01:33:20;;;;;;;0.40;0.40;;;14.50;99.90;;;;;;5054722;28;20066;-67
2022/07/01 01:35:46;;;;;;;1.15;0.50;;;14.90;99.90;;;;;;5072591;28;20083;-68
2022/07/01 01:38:11;;;;;;;2.15;0.30;;;14.50;99.90;;;;;;5072667;28;20072;-68
2022/07/01 01:40:37;;;;;;;0.28;0.28;;;14.60;99.90;;;;;;5072929;28;20036;-67
2022/07/01 01:43:03;;;;;;;0.43;0.30;;;14.60;99.90;;;;;;5072891;28;20033;-68
2022/07/01 01:45:28;;;;;;;1.25;0.30;;;15.50;99.90;;;;;;5054692;28;20053;-68
2022/07/01 01:47:54;;;;;;;0.30;0.30;;;15.10;99.90;;;;;;5072884;28;20033;-68
2022/07/01 01:50:20;;;;;;;0.20;0.20;;;14.50;99.90;;;;;;5072763;28;20039;-68
2022/07/01 01:52:46;;;;;;;2.17;0.50;;;14.60;99.90;;;;;;5072389;28;20106;-67
2022/07/01 01:55:13;;;;;;;0.17;0.17;;;14.60;99.90;;;;;;5072764;28;20033;-67
2022/07/01 01:57:39;;;;;;;1.38;0.50;;;14.60;99.90;;;;;;5054760;28;20438;-67
2022/07/01 02:00:08;;;;;;;0.30;0.30;;;14.60;99.90;;;;;;5074254;28;20090;-68
2022/07/01 02:02:36;;;;;;;0.40;0.40;;;14.60;99.90;;;;;;5058923;28;20476;-68
2022/07/01 02:05:04;;;;;;;0.22;0.20;;;14.60;99.90;;;;;;5076658;28;20048;-68
2022/07/01 02:07:29;;;;;;;0.30;0.30;;;14.60;99.90;;;;;;5075352;28;20458;-68
2022/07/01 02:09:55;;;;;;;0.47;0.40;;;14.60;99.90;;;;;;5076327;28;20060;-68
2022/07/01 02:12:21;;;;;;;0.30;0.30;;;14.60;99.90;;;;;;5041658;28;20045;-68
2022/07/01 02:14:46;;;;;;;2.65;0.47;;;14.60;99.90;;;;;;5076450;28;20039;-68
2022/07/01 02:17:12;;;;;;;0.63;0.50;;;14.70;99.90;;;;;;5058560;28;20113;-68
2022/07/01 02:19:37;;;;;;;0.52;0.43;;;14.70;99.90;;;;;;5076376;28;20062;-67
2022/07/01 02:22:03;;;;;;;0.65;0.63;;;14.60;99.90;;;;;;5076026;28;20082;-68
2022/07/01 02:24:29;;;;;;;0.60;0.30;;;14.60;99.90;;;;;;5076215;28;20127;-67
2022/07/01 02:26:54;;;;;;;0.68;0.60;;;14.60;99.90;;;;;;5076236;28;20047;-67
2022/07/01 02:29:20;;;;;;;0.65;0.50;;;15.20;99.90;;;;;;5076093;28;20032;-68
2022/07/01 02:31:46;;;;;;;0.93;0.55;;;14.50;99.90;;;;;;5057947;28;20499;-68
2022/07/01 02:34:12;;;;;;;0.50;0.43;;;14.50;99.90;;;;;;5076012;28;20040;-68
2022/07/01 02:36:37;;;;;;;1.10;0.77;;;14.50;99.90;;;;;;5075762;28;20120;-68
2022/07/01 02:39:03;;;;;;;1.60;0.80;;;14.60;99.90;;;;;;5076020;28;20471;-68
2022/07/01 02:41:29;;;;;;;1.92;0.52;;;14.80;99.90;;;;;;5057812;28;20136;-68
2022/07/01 02:43:54;;;;;;;0.60;0.57;;;14.60;99.90;;;;;;5075642;28;20488;-68
2022/07/01 02:46:20;;;;;;;0.52;0.50;;;14.60;99.90;;;;;;5057926;28;20464;-68
2022/07/01 02:48:46;;;;;;;0.60;0.50;;;14.60;99.90;;;;;;5075871;28;20043;-68
2022/07/01 02:51:11;;;;;;;0.90;0.50;;;14.60;99.90;;;;;;5075952;28;20076;-68
2022/07/01 02:53:37;;;;;;;1.55;0.65;;;14.60;99.90;;;;;;5075450;28;20036;-68
2022/07/01 02:56:03;;;;;;;3.25;0.70;;;14.80;99.90;;;;;;5075710;28;20033;-67
2022/07/01 02:58:28;;;;;;;0.30;0.30;;;14.60;99.90;;;;;;5075317;28;20430;-67
2022/07/01 03:00:54;;;;;;;0.85;0.60;;;14.90;99.90;;;;;;5075293;28;20036;-67
2022/07/01 03:03:20;;;;;;;1.15;0.75;;;15.20;99.90;;;;;;5057335;28;20037;-67
2022/07/01 03:05:47;;;;;;;0.60;0.57;;;14.50;99.90;;;;;;5075563;28;20040;-67
2022/07/01 03:08:13;;;;;;;1.15;0.80;;;14.50;99.90;;;;;;5057217;28;20075;-67
2022/07/01 03:10:39;;;;;;;1.10;0.68;;;14.50;99.90;;;;;;5074674;28;20091;-68
2022/07/01 03:13:05;;;;;;;0.68;0.68;;;14.60;99.90;;;;;;5056523;28;20049;-67
2022/07/01 03:15:30;;;;;;;0.65;0.60;;;14.50;99.90;;;;;;5057080;28;20072;-67
2022/07/01 03:17:56;;;;;;;2.50;0.85;;;14.50;99.90;;;;;;5075337;28;20391;-67
2022/07/01 03:20:22;;;;;;;0.73;0.57;;;14.50;99.90;;;;;;5075245;28;20110;-67
2022/07/01 03:22:48;;;;;;;0.65;0.50;;;14.40;99.90;;;;;;5074992;28;20075;-68
2022/07/01 03:25:13;;;;;;;1.00;0.68;;;15.00;99.90;;;;;;5075161;28;20037;-68
2022/07/01 03:27:44;;;;;;;2.42;0.80;;;14.40;99.90;;;;;;5075157;28;20448;-67
2022/07/01 03:30:11;;;;;;;1.35;0.80;;;14.40;99.90;;;;;;5075079;28;20041;-67
2022/07/01 03:32:37;;;;;;;1.48;0.73;;;14.40;99.90;;;;;;5074628;28;20044;-67
2022/07/01 03:35:35;;;;;;;1.70;0.80;;;14.40;99.90;;;;;;5075011;28;20044;-67
2022/07/01 03:37:49;;;;;;;0.90;0.70;;;14.40;99.90;;;;;;5074477;28;20106;-67
2022/07/01 03:40:15;;;;;;;1.23;0.85;;;14.40;99.90;;;;;;5074884;28;20033;-67
2022/07/01 03:42:41;;;;;;;2.58;0.88;;;14.30;99.90;;;;;;5056715;28;20144;-67
2022/07/01 03:45:07;;;;;;;1.52;0.82;;;14.40;99.90;;;;;;5074759;28;20373;-67
2022/07/01 03:47:32;;;;;;;0.98;0.70;;;14.40;99.90;;;;;;5074399;28;20048;-67
2022/07/01 03:49:58;;;;;;;1.92;1.00;;;14.50;99.90;;;;;;5074687;28;20041;-67
2022/07/01 03:52:24;;;;;;;2.08;0.98;;;14.70;99.90;;;;;;5074553;28;20388;-67
2022/07/01 03:54:49;;;;;;;2.50;1.48;;;14.40;99.90;;;;;;5074253;28;20040;-67
2022/07/01 03:57:15;;;;;;;1.83;1.20;;;14.40;99.90;;;;;;5074589;28;20043;-67
2022/07/01 03:59:41;;;;;;;2.58;1.48;;;14.40;99.90;;;;;;5074522;28;20503;-67
2022/07/01 04:02:07;;;;;;;4.65;1.35;;;15.00;99.90;;;;;;5056390;28;20040;-67
2022/07/01 04:04:34;;;;;;;3.10;1.65;;;14.50;99.90;;;;;;5056162;28;20044;-67
2022/07/01 04:07:04;;;;;;;2.50;1.77;;;14.50;99.90;;;;;;5074306;28;20367;-67
2022/07/01 04:09:30;;;;;;;3.50;2.00;;;14.50;99.90;;;;;;5074343;28;20361;-67
2022/07/01 04:11:57;;;;;;;3.35;1.63;;;14.50;99.90;;;;;;5074145;28;20445;-68
2022/07/01 04:14:24;;;;;;;3.28;2.00;;;14.60;99.90;;;;;;5074064;28;20119;-67
2022/07/01 04:16:50;;;;;;;3.78;2.42;;;14.50;99.90;;;;;;5055926;28;20049;-68
2022/07/01 04:19:16;;;;;;;3.88;2.45;;;14.50;99.90;;;;;;5074049;28;20047;-67
2022/07/01 04:24:28;;;;;;;4.35;2.70;;;14.50;99.90;;;;;;5073846;28;20074;-67
2022/07/01 04:26:54;;;;;;;4.25;2.80;;;14.50;99.90;;;;;;5073883;28;20044;-67
2022/07/01 04:29:20;;;;;;;4.72;2.78;;;14.50;99.90;;;;;;5073832;28;20097;-67
2022/07/01 04:31:47;;;;;;;5.53;2.85;;;14.50;99.90;;;;;;5072216;28;20056;-67
2022/07/01 04:34:13;;;;;;;4.32;3.00;;;14.30;99.90;;;;;;5073419;28;20044;-67
2022/07/01 04:36:39;;;;;;;5.18;3.13;;;14.50;99.90;;;;;;5055906;28;20044;-67
2022/07/01 04:39:05;;;;;;;5.57;3.25;;;14.60;99.90;;;;;;5073761;28;20163;-67
2022/07/01 04:44:17;;;;;;;8.50;4.30;;;14.50;99.90;;;;;;5073599;28;20059;-67
2022/07/01 04:46:42;;;;;;;6.50;4.00;;;15.30;99.90;;;;;;5055768;28;20039;-67
2022/07/01 04:49:09;;;;;;;5.43;3.85;;;14.50;99.90;;;;;;5073539;28;20408;-67
2022/07/01 04:51:34;;;;;;;9.48;5.20;;;14.50;99.90;;;;;;5073413;28;20032;-67
2022/07/01 04:54:05;;;;;;;8.60;4.30;;;14.60;99.90;;;;;;5073152;28;20033;-67
2022/07/01 04:56:33;;;;;;;9.30;4.53;;;14.60;99.90;;;;;;5073398;28;20041;-67
2022/07/01 04:58:59;;;;;;;13.27;5.85;;;14.60;99.90;;;;;;5055197;28;20040;-67
2022/07/01 05:01:25;;;;;;;9.68;5.43;;;14.60;99.90;;;;;;5073410;28;20048;-67
2022/07/01 05:03:51;;;;;;;11.65;6.78;;;14.50;99.90;;;;;;5073380;28;20036;-67
2022/07/01 05:06:17;;;;;;;12.77;5.88;;;14.80;99.90;;;;;;5073330;28;20041;-68
2022/07/01 05:08:42;;;;;;;9.93;5.68;;;14.30;99.90;;;;;;5073634;28;20037;-67
2022/07/01 05:11:08;;;;;;;10.98;6.55;;;14.60;99.90;;;;;;5054774;28;20127;-68
2022/07/01 05:13:34;;;;;;;10.10;5.72;;;14.70;99.90;;;;;;5072993;28;20462;-68
2022/07/01 05:16:00;;;;;;;13.05;6.93;;;14.60;99.90;;;;;;5054971;28;20064;-68
2022/07/01 05:23:55;;;;;;;9.07;5.53;;;14.60;99.90;;;;;;5073109;28;20041;-67
2022/07/01 05:26:21;;;;;;;10.75;6.50;;;14.60;99.90;;;;;;5072729;28;20462;-67
2022/07/01 05:28:46;;;;;;;15.57;7.50;;;14.60;99.90;;;;;;5071541;28;20078;-67
2022/07/01 05:31:12;;;;;;;11.82;6.38;;;14.60;99.90;;;;;;5054938;28;20076;-68
2022/07/01 05:33:38;;;;;;;10.50;6.75;;;14.60;99.90;;;;;;5054777;28;20029;-68
2022/07/01 05:36:04;;;;;;;10.85;6.78;;;14.70;99.90;;;;;;5070954;28;20110;-69
2022/07/01 05:38:30;;;;;;;13.40;6.68;;;14.70;99.90;;;;;;5071399;28;20040;-69
2022/07/01 05:40:56;;;;;;;11.32;6.35;;;14.70;99.90;;;;;;5055029;28;20045;-66
2022/07/01 05:43:22;;;;;;;11.60;7.18;;;14.80;99.90;;;;;;5072875;28;20075;-68
2022/07/01 05:45:47;;;;;;;14.30;7.43;;;14.80;99.90;;;;;;5054967;28;20533;-68
2022/07/01 05:48:13;;;;;;;12.20;7.22;;;14.80;99.90;;;;;;5038118;28;20124;-68
2022/07/01 05:50:43;;;;;;;12.93;7.32;;;14.80;99.90;;;;;;5072644;28;20484;-68
2022/07/01 05:53:09;;;;;;;14.43;7.03;;;14.90;99.90;;;;;;5071349;28;20044;-67
2022/07/01 05:55:34;;;;;;;15.27;7.85;;;14.90;99.90;;;;;;5054510;28;20048;-68
2022/07/01 05:58:01;;;;;;;12.55;7.25;;;14.90;99.90;;;;;;5072748;28;20480;-67
2022/07/01 06:00:27;;;;;;;12.57;7.72;;;14.90;99.90;;;;;;5072752;28;20036;-68
2022/07/01 06:02:53;;;;;;;15.10;7.32;;;15.00;99.90;;;;;;5072709;28;20044;-67
2022/07/01 06:05:19;;;;;;;12.32;7.07;;;15.10;99.90;;;;;;5072602;28;20076;-68
2022/07/01 06:07:45;;;;;;;13.45;6.93;;;15.00;99.90;;;;;;5072709;28;20460;-67
2022/07/01 06:10:11;;;;;;;12.85;7.05;;;15.10;99.90;;;;;;5072436;28;20454;-66
2022/07/01 06:12:38;;;;;;;14.45;8.32;;;15.30;99.90;;;;;;5072461;28;20052;-68
2022/07/01 06:15:08;;;;;;;12.85;7.35;;;15.30;99.90;;;;;;5072631;28;20032;-68
2022/07/01 06:17:35;;;;;;;17.63;7.88;;;15.30;99.90;;;;;;5072571;28;20037;-67
2022/07/01 06:20:01;;;;;;;14.55;7.60;;;15.30;99.90;;;;;;5072607;28;20104;-69
2022/07/01 06:22:26;;;;;;;12.40;7.28;;;15.30;99.90;;;;;;5072300;28;20119;-68
2022/07/01 06:24:52;;;;;;;13.23;7.43;;;15.10;99.90;;;;;;5072289;28;20090;-69
2022/07/01 06:27:18;;;;;;;14.82;7.80;;;15.30;99.90;;;;;;5072368;28;20444;-68
2022/07/01 06:29:43;;;;;;;11.50;6.97;;;15.30;99.90;;;;;;5071160;28;20496;-69
2022/07/01 06:32:09;;;;;;;11.50;6.80;;;15.60;99.90;;;;;;5071948;28;20396;-69
2022/07/01 06:34:35;;;;;;;13.38;8.00;;;15.40;99.90;;;;;;5072562;28;20036;-68
2022/07/01 06:37:01;;;;;;;13.75;7.90;;;15.30;99.90;;;;;;5072335;28;20037;-68
2022/07/01 06:39:27;;;;;;;9.90;6.85;;;15.50;99.90;;;;;;5072336;28;20086;-69
2022/07/01 06:41:55;;;;;;;13.95;7.25;;;15.40;99.90;;;;;;5072384;28;20407;-69
2022/07/01 06:44:21;;;;;;;9.80;6.90;;;15.80;99.90;;;;;;5070720;28;20080;-69
2022/07/01 06:46:46;;;;;;;11.88;8.10;;;15.50;99.90;;;;;;5022165;28;20036;-69
2022/07/01 06:49:13;;;;;;;14.38;8.10;;;15.60;99.90;;;;;;5057759;28;20408;-69
2022/07/01 06:51:39;;;;;;;14.13;7.15;;;15.60;99.90;;;;;;5074242;28;20044;-69
2022/07/01 06:54:04;;;;;;;12.88;7.57;;;15.70;99.90;;;;;;5074219;28;20038;-69
2022/07/01 06:56:30;;;;;;;12.15;7.75;;;15.80;99.90;;;;;;5075714;28;20041;-68
2022/07/01 06:58:56;;;;;;;11.88;7.80;;;15.80;99.90;;;;;;5075699;28;20040;-69
2022/07/01 07:01:22;;;;;;;11.73;7.35;;;15.80;99.90;;;;;;5057453;28;20127;-69
2022/07/01 07:03:48;;;;;;;12.20;7.60;;;15.80;99.90;;;;;;5057445;28;20048;-69
2022/07/01 07:06:13;;;;;;;10.18;7.18;;;15.80;99.90;;;;;;5075575;28;20054;-68
2022/07/01 07:08:39;;;;;;;12.10;7.43;;;15.80;99.90;;;;;;5057596;28;20043;-69
2022/07/01 07:11:06;;;;;;;10.93;7.28;;;15.80;99.90;;;;;;5070463;28;20146;-69
2022/07/01 07:13:32;;;;;;;13.15;7.65;;;15.80;99.90;;;;;;5054278;28;20469;-69
2022/07/01 07:15:58;;;;;;;10.68;7.13;;;15.80;99.90;;;;;;5055454;28;20039;-69
2022/07/01 07:18:24;;;;;;;14.45;7.70;;;15.80;99.90;;;;;;5055399;28;20044;-69
2022/07/01 07:20:49;;;;;;;16.10;9.23;;;15.70;99.90;;;;;;5054111;28;20123;-67
2022/07/01 07:23:15;;;;;;;12.20;7.72;;;15.70;99.90;;;;;;5054037;28;20135;-69
2022/07/01 07:25:42;;;;;;;11.05;7.30;;;15.70;99.90;;;;;;5055298;28;20075;-68
2022/07/01 07:28:07;;;;;;;13.93;8.45;;;15.70;99.90;;;;;;5055255;28;20464;-69
2022/07/01 07:30:33;;;;;;;12.38;7.75;;;16.20;99.90;;;;;;5054019;28;20167;-69
2022/07/01 07:32:59;;;;;;;12.48;8.38;;;15.70;99.90;;;;;;5053498;28;20037;-69
2022/07/01 07:35:24;;;;;;;10.25;7.35;;;15.70;99.90;;;;;;5054990;28;20041;-69
2022/07/01 07:37:50;;;;;;;12.23;7.03;;;15.70;99.90;;;;;;5054963;28;20111;-69
2022/07/01 07:40:18;;;;;;;10.82;6.75;;;15.80;99.90;;;;;;5053493;28;20401;-69
2022/07/01 07:42:46;;;;;;;11.95;8.23;;;15.80;99.90;;;;;;5053755;28;20063;-69
2022/07/01 07:45:14;;;;;;;10.27;6.97;;;15.90;99.90;;;;;;5054904;28;20574;-69
2022/07/01 07:47:43;;;;;;;12.15;7.30;;;16.00;99.90;;;;;;5054819;28;20040;-69
2022/07/01 07:50:09;;;;;;;10.30;7.68;;;15.90;99.90;;;;;;5054471;28;20469;-69
2022/07/01 07:52:35;;;;;;;14.65;8.65;;;15.90;99.90;;;;;;5054569;28;20044;-69
2022/07/01 07:55:02;;;;;;;11.40;7.15;;;16.00;99.90;;;;;;5054669;28;20041;-69
2022/07/01 07:57:27;;;;;;;13.27;7.82;;;16.00;99.90;;;;;;5054188;28;20147;-69
2022/07/01 07:59:53;;;;;;;12.30;7.32;;;15.90;99.90;;;;;;5054606;28;20504;-69
2022/07/01 08:02:19;;;;;;;12.38;7.63;;;16.00;99.90;;;;;;5054335;28;20044;-69
2022/07/01 08:04:44;;;;;;;14.15;7.47;;;16.10;99.90;;;;;;5054508;28;20083;-69
2022/07/01 08:07:10;;;;;;;11.32;8.00;;;16.20;99.90;;;;;;5054475;28;20037;-69
2022/07/01 08:09:36;;;;;;;15.30;7.43;;;16.20;99.90;;;;;;5052803;28;20092;-69
2022/07/01 08:12:02;;;;;;;13.88;7.50;;;16.20;99.90;;;;;;5052710;28;20057;-69
2022/07/01 08:14:28;;;;;;;13.00;6.90;;;16.20;99.90;;;;;;5054012;28;20041;-70
2022/07/01 08:16:54;;;;;;;10.85;6.93;;;16.30;99.90;;;;;;5054249;28;20041;-69
2022/07/01 08:19:19;;;;;;;10.32;6.78;;;16.30;99.90;;;;;;5052610;28;20068;-69
2022/07/01 08:21:45;;;;;;;12.48;7.32;;;16.40;99.90;;;;;;5053075;28;20049;-69
2022/07/01 08:24:11;;;;;;;8.85;6.28;;;16.60;99.90;;;;;;5053877;28;20041;-69
2022/07/01 08:26:36;;;;;;;14.10;6.93;;;16.70;99.90;;;;;;5052633;28;20044;-69
2022/07/01 08:29:03;;;;;;;15.25;6.68;;;16.80;99.90;;;;;;5054148;28;20044;-70
2022/07/01 08:31:29;;;;;;;10.40;6.47;;;16.80;99.90;;;;;;5052392;28;20045;-70
2022/07/01 08:33:55;;;;;;;8.50;5.70;;;16.80;99.90;;;;;;5052638;28;20503;-70
2022/07/01 08:36:21;;;;;;;10.38;5.90;;;16.80;99.90;;;;;;5053904;28;20068;-69
2022/07/01 08:38:48;;;;;;;10.23;7.13;;;16.90;99.90;;;;;;5053582;28;20037;-69
2022/07/01 08:41:15;;;;;;;11.27;6.45;;;17.00;99.90;;;;;;5036018;28;20045;-70
2022/07/01 08:43:40;;;;;;;10.20;6.43;;;17.00;99.90;;;;;;5053795;28;20045;-70
2022/07/01 08:46:07;;;;;;;8.25;5.63;;;17.40;99.90;;;;;;5053293;28;20045;-69
2022/07/01 08:48:34;;;;;;;9.90;5.53;;;17.30;99.90;;;;;;5053681;28;20136;-69
2022/07/01 08:51:03;;;;;;;8.18;5.88;;;17.20;99.90;;;;;;5052074;28;20041;-69
2022/07/01 08:53:30;;;;;;;9.18;5.43;;;17.40;99.90;;;;;;5053388;28;20068;-69
2022/07/01 08:58:41;;;;;;;11.20;5.25;;;17.40;99.90;;;;;;5053174;28;20044;-70
2022/07/01 09:01:13;;;;;;;9.68;5.40;;;17.50;99.90;;;;;;5052223;28;20033;-69
2022/07/01 09:03:38;;;;;;;7.30;4.85;;;17.80;99.90;;;;;;5053432;28;20037;-69
2022/07/01 09:06:15;;;;;;;8.50;5.35;;;18.00;99.90;;;;;;5051969;28;20048;-69
2022/07/01 09:08:41;;;;;;;16.17;4.93;;;18.00;99.90;;;;;;5052799;28;20045;-69
2022/07/01 09:11:19;;;;;;;6.20;4.10;;;18.10;99.90;;;;;;5069889;28;20055;-69
2022/07/01 09:14:03;;;;;;;5.75;4.32;;;18.10;99.90;;;;;;5073361;28;20452;-69
2022/07/01 09:16:29;;;;;;;5.70;3.78;;;18.10;99.90;;;;;;5072886;28;20055;-69
2022/07/01 09:19:03;;;;;;;6.25;3.65;;;18.10;99.90;;;;;;5072828;28;20395;-69
2022/07/01 09:21:30;;;;;;;8.02;3.63;;;18.10;99.90;;;;;;5071518;28;20076;-69
2022/07/01 09:24:16;;;;;;;4.75;3.10;;;18.20;99.90;;;;;;5072809;28;20044;-69
2022/07/01 09:26:57;;;;;;;6.05;3.08;;;18.40;99.90;;;;;;5070849;28;20111;-69
2022/07/01 09:29:27;;;;;;;6.88;3.42;;;18.40;99.90;;;;;;5073220;28;20036;-70
2022/07/01 09:31:52;;;;;;;5.25;3.47;;;18.40;99.90;;;;;;5073026;28;20037;-69
2022/07/01 09:34:18;;;;;;;5.20;3.13;;;18.30;99.90;;;;;;5073030;28;20037;-69
2022/07/01 09:36:53;;;;;;;4.88;3.08;;;18.30;99.90;;;;;;5073047;28;20125;-70
2022/07/01 09:39:18;;;;;;;7.75;3.85;;;18.30;99.90;;;;;;5072939;28;20041;-69
2022/07/01 09:41:44;;;;;;;5.38;3.38;;;18.40;99.90;;;;;;5072748;28;20387;-69
2022/07/01 09:44:10;;;;;;;5.82;3.08;;;18.50;99.90;;;;;;5054915;28;20047;-69
2022/07/01 09:46:35;;;;;;;5.97;3.55;;;18.40;99.90;;;;;;5072960;28;20058;-69
2022/07/01 09:49:02;;;;;;;5.60;3.08;;;18.40;99.90;;;;;;5073056;28;20391;-69
2022/07/01 09:51:30;;;;;;;4.45;3.17;;;18.30;99.90;;;;;;5055137;28;20036;-69
2022/07/01 09:53:56;;;;;;;3.92;3.15;;;18.40;99.90;;;;;;5054940;28;20054;-69
2022/07/01 09:56:25;;;;;;;5.68;2.92;;;18.40;99.90;;;;;;5054656;28;20043;-69
2022/07/01 09:58:51;;;;;;;4.65;3.22;;;18.40;99.90;;;;;;5054723;28;20121;-69
2022/07/01 10:01:17;;;;;;;5.65;2.70;;;18.70;99.90;;;;;;5072643;28;20459;-69
2022/07/01 10:03:43;;;;;;;4.93;2.78;;;18.80;99.90;;;;;;5072573;28;20120;-69
2022/07/01 10:06:33;;;;;;;4.15;2.30;;;18.90;99.90;;;;;;5072817;28;20040;-71
2022/07/01 10:09:14;;;;;;;3.50;2.70;;;18.90;99.90;;;;;;5072822;28;20040;-69
2022/07/01 10:12:06;;;;;;;3.40;2.33;;;18.90;99.90;;;;;;5072439;28;20511;-70
2022/07/01 10:14:36;;;;;;;4.88;2.97;;;19.00;99.90;;;;;;5072685;28;20058;-68
2022/07/01 10:17:01;;;;;;;3.30;2.37;;;18.90;99.90;;;;;;5072743;28;20032;-70
2022/07/01 10:19:30;;;;;;;6.78;3.28;;;18.90;99.90;;;;;;5072378;28;20546;-69
2022/07/01 10:22:17;;;;;;;3.42;2.55;;;19.00;99.90;;;;;;5075475;28;20055;-68
2022/07/01 10:24:42;;;;;;;5.07;3.17;;;19.10;99.90;;;;;;5075505;28;20044;-69
2022/07/01 10:27:20;;;;;;;4.90;2.67;;;19.20;99.90;;;;;;5058238;28;20128;-68
2022/07/01 10:29:46;;;;;;;4.50;2.72;;;19.10;99.90;;;;;;5076002;28;20098;-67
2022/07/01 10:32:21;;;;;;;6.65;3.55;;;19.10;99.90;;;;;;5076190;28;20044;-67
2022/07/01 10:34:47;;;;;;;5.05;2.63;;;19.10;99.90;;;;;;5075975;28;20072;-67
2022/07/01 10:37:13;;;;;;;3.67;2.17;;;19.00;99.90;;;;;;5076091;28;20087;-68
2022/07/01 10:39:56;;;;;;;7.95;2.67;;;19.10;99.90;;;;;;5076057;28;20082;-68
2022/07/01 10:42:26;;;;;;;5.13;2.70;;;19.30;99.90;;;;;;5058116;28;20556;-68
2022/07/01 10:45:05;;;;;;;3.90;2.78;;;19.50;99.90;;;;;;5074583;28;20049;-68
2022/07/01 10:47:31;;;;;;;5.00;2.35;;;19.50;99.90;;;;;;5075677;28;20083;-68
2022/07/01 10:49:59;;;;;;;4.22;2.38;;;19.70;99.90;;;;;;5074471;28;20041;-68
2022/07/01 10:52:25;;;;;;;2.72;2.15;;;19.70;99.90;;;;;;5075467;28;20044;-68
2022/07/01 10:54:55;;;;;;;2.78;1.98;;;19.70;99.90;;;;;;5075948;28;20504;-68
2022/07/01 10:57:33;;;;;;;7.13;2.03;;;19.70;99.90;;;;;;5075870;28;20035;-68
2022/07/01 10:59:58;;;;;;;3.55;2.25;;;19.60;99.90;;;;;;5075729;28;20373;-68
2022/07/01 11:02:35;;;;;;;4.15;2.22;;;19.60;99.90;;;;;;5075105;28;20040;-67
2022/07/01 11:05:09;;;;;;;2.85;1.70;;;19.60;99.90;;;;;;5074368;28;20091;-69
2022/07/01 11:07:37;;;;;;;3.70;1.98;;;19.60;99.90;;;;;;5075367;28;20051;-68
2022/07/01 11:10:06;;;;;;;2.90;1.88;;;19.80;99.90;;;;;;5075280;28;20041;-68
2022/07/01 11:12:32;;;;;;;2.25;1.75;;;19.90;99.90;;;;;;5057283;28;20128;-68
2022/07/01 11:15:01;;;;;;;3.92;1.85;;;20.10;99.90;;;;;;5075544;28;20038;-68
2022/07/01 11:17:27;;;;;;;2.03;1.40;;;20.10;99.90;;;;;;5075222;28;20040;-67
2022/07/01 11:19:57;;;;;;;3.97;2.08;;;20.00;99.90;;;;;;5075338;28;20036;-70
2022/07/01 11:22:28;;;;;;;4.43;2.08;;;20.00;99.90;;;;;;5075372;28;20511;-69
2022/07/01 11:24:59;;;;;;;4.20;2.22;;;20.10;99.90;;;;;;5074992;28;20043;-65
2022/07/01 11:27:25;;;;;;;;;;;20.10;99.90;;;;;;5075645;28;20170;-66
2022/07/01 11:29:55;;;;;;;3.83;1.95;;;20.10;99.90;;;;;;5075204;28;19932;-65
2022/07/01 11:32:31;;;;;;;;;;;20.00;99.90;;;;;;5074624;28;20048;-66
2022/07/01 11:34:59;;;;;;;5.82;1.88;;;20.00;99.90;;;;;;5075083;28;19923;-68
2022/07/01 11:40:17;;;;;;;4.00;1.63;;;20.20;99.90;;;;;;5074655;28;20097;-68
2022/07/01 11:42:44;;;;;;;2.00;1.33;;;20.20;99.90;;;;;;5056717;28;20036;-67
2022/07/01 11:45:25;;;;;;;3.80;1.90;;;20.30;99.90;;;;;;5074904;28;20040;-68
2022/07/01 11:47:52;;;;;;;2.13;1.70;;;20.50;99.90;;;;;;5074781;28;20044;-69
2022/07/01 11:50:17;;;;;;;2.70;1.42;;;20.40;99.90;;;;;;5074337;28;20044;-69
2022/07/01 11:52:43;;;;;;;3.13;1.38;;;20.50;99.90;;;;;;5056390;28;20047;-68
2022/07/01 11:55:09;;;;;;;3.38;1.30;;;20.60;99.90;;;;;;5074624;28;20041;-68
2022/07/01 11:57:35;;;;;;;1.60;1.20;;;20.80;99.90;;;;;;5074657;28;20044;-68
2022/07/01 12:00:10;;;;;;;2.35;1.33;;;21.10;99.90;;;;;;5056371;28;20040;-68
2022/07/01 12:02:36;;;;;;;2.25;1.05;;;21.00;99.90;;;;;;5074208;28;20044;-68
2022/07/01 12:05:03;;;;;;;1.92;1.38;;;20.90;99.90;;;;;;5074499;28;20102;-68
2022/07/01 12:07:29;;;;;;;1.75;1.15;;;21.20;99.90;;;;;;5074019;28;20048;-68
2022/07/01 12:09:54;;;;;;;0.68;0.65;;;21.00;99.90;;;;;;5056147;28;20060;-65
2022/07/01 12:12:25;;;;;;;1.27;0.85;;;21.00;99.90;;;;;;5074304;28;20055;-66
2022/07/01 12:14:56;;;;;;;0.88;0.70;;;20.90;99.90;;;;;;5056194;28;20062;-67
2022/07/01 12:17:22;;;;;;;3.03;1.02;;;20.80;99.90;;;;;;5074133;28;20094;-66
2022/07/01 12:19:49;;;;;;;0.65;0.60;;;20.80;99.90;;;;;;5074213;28;20040;-66
2022/07/01 12:22:20;;;;;;;1.92;0.90;;;20.60;99.90;;;;;;5073845;28;20396;-67
2022/07/01 12:24:47;;;;;;;1.67;1.00;;;20.70;99.90;;;;;;5055893;28;20040;-68
2022/07/01 12:27:14;;;;;;;0.90;0.85;;;20.90;99.90;;;;;;5055726;28;20040;-66
2022/07/01 12:29:42;;;;;;;1.23;0.60;;;21.10;99.90;;;;;;5072423;28;20052;-65
2022/07/01 12:32:12;;;;;;;1.17;0.90;;;21.10;99.90;;;;;;5073871;28;20174;-66
2022/07/01 12:34:47;;;;;;;0.63;0.57;;;20.80;99.90;;;;;;5073995;28;20490;-67
2022/07/01 12:37:25;;;;;;;2.17;0.82;;;20.90;99.90;;;;;;5055648;28;20047;-65
2022/07/01 12:39:59;;;;;;;0.30;0.30;;;20.60;99.90;;;;;;5073767;28;20040;-65
2022/07/01 12:42:39;;;;;;;1.08;0.60;;;20.60;99.90;;;;;;5055810;28;20076;-66
2022/07/01 12:45:11;;;;;;;1.40;0.70;;;20.30;99.90;;;;;;5073700;28;20032;-65
2022/07/01 12:47:39;;;;;;;0.63;0.50;;;20.00;99.90;;;;;;5055490;28;20079;-66
2022/07/01 12:50:12;;;;;;;1.48;0.70;;;19.90;99.90;;;;;;5073628;28;20039;-65
2022/07/01 12:52:38;;;;;;;0.52;0.40;;;20.00;99.90;;;;;;5073528;28;20492;-65
2022/07/01 12:55:17;;;;;;;0.88;0.60;;;20.10;99.90;;;;;;5073547;28;20492;-66
2022/07/01 12:57:46;;;;;;;1.73;0.40;;;20.10;99.90;;;;;;5073194;28;20043;-65
2022/07/01 13:00:12;;;;;;;0.55;0.50;;;20.20;99.90;;;;;;5073124;28;20040;-65
2022/07/01 13:02:38;;;;;;;0.60;0.52;;;20.40;99.90;;;;;;5073053;28;20084;-66